Praesel, Texas
Current Conditions -  °F | °C
As of 9:15 AM on Wednesday 26 Nov 2014 (Local Time) from KT35 Reporting Station
Clear Clear  
Wind Chill: 56°   Ceiling: Unl
Heat Index: 56°   Visibility: 10mi
Dew Point: 35°   Wind: 14mph
Humidity: 46%   Direction: 230°SW
Pressure: 30.19"   Gusts: 22mph
Location:  30.6499°N, 96.9973°W
Report Text: KT35 261515Z AUTO 23012G19KT 10SM CLR 13/02 A3019 RMK AO2 T01310016
Loading
Personal Weather Stations






























Interactive Weather Map New forecast layout! Learn more

10-Day Weather Forecast

Advertisements
Track Severe Weather on mobile